sensor_id;sensor_type;location;lat;lon;timestamp;temperature;humidity
148;DHT22;142;50.652;12.216;2023-04-03T00:02:12;5.10;23.00
148;DHT22;142;50.652;12.216;2023-04-03T00:04:39;5.00;23.10
148;DHT22;142;50.652;12.216;2023-04-03T00:07:07;5.00;23.00
148;DHT22;142;50.652;12.216;2023-04-03T00:09:36;4.90;23.00
148;DHT22;142;50.652;12.216;2023-04-03T00:12:03;4.80;22.80
148;DHT22;142;50.652;12.216;2023-04-03T00:14:31;4.70;23.00
148;DHT22;142;50.652;12.216;2023-04-03T00:16:58;4.80;23.10
148;DHT22;142;50.652;12.216;2023-04-03T00:19:25;4.70;22.90
148;DHT22;142;50.652;12.216;2023-04-03T00:21:52;4.70;23.20
148;DHT22;142;50.652;12.216;2023-04-03T00:24:21;4.50;22.70
148;DHT22;142;50.652;12.216;2023-04-03T00:26:48;4.60;23.10
148;DHT22;142;50.652;12.216;2023-04-03T00:29:16;4.60;22.90
148;DHT22;142;50.652;12.216;2023-04-03T00:31:43;4.50;22.80
148;DHT22;142;50.652;12.216;2023-04-03T00:34:11;4.50;22.90
148;DHT22;142;50.652;12.216;2023-04-03T00:36:38;4.50;22.90
148;DHT22;142;50.652;12.216;2023-04-03T00:39:05;4.40;22.90
148;DHT22;142;50.652;12.216;2023-04-03T00:41:34;4.40;22.90
148;DHT22;142;50.652;12.216;2023-04-03T00:46:43;4.20;23.20
148;DHT22;142;50.652;12.216;2023-04-03T00:49:10;4.00;23.30
148;DHT22;142;50.652;12.216;2023-04-03T00:51:37;4.00;23.60
148;DHT22;142;50.652;12.216;2023-04-03T00:54:06;3.90;23.30
148;DHT22;142;50.652;12.216;2023-04-03T00:56:37;3.90;23.60
148;DHT22;142;50.652;12.216;2023-04-03T00:59:06;3.90;23.40
148;DHT22;142;50.652;12.216;2023-04-03T01:01:35;3.90;23.50
148;DHT22;142;50.652;12.216;2023-04-03T01:04:05;3.80;23.60
148;DHT22;142;50.652;12.216;2023-04-03T01:06:36;3.80;23.30
148;DHT22;142;50.652;12.216;2023-04-03T01:09:04;3.90;23.30
148;DHT22;142;50.652;12.216;2023-04-03T01:11:32;3.90;23.50
148;DHT22;142;50.652;12.216;2023-04-03T01:14:00;4.00;23.30
148;DHT22;142;50.652;12.216;2023-04-03T01:16:28;3.90;23.30
148;DHT22;142;50.652;12.216;2023-04-03T01:18:57;3.90;23.20
148;DHT22;142;50.652;12.216;2023-04-03T01:21:49;4.00;23.30
148;DHT22;142;50.652;12.216;2023-04-03T01:24:31;4.00;23.30
148;DHT22;142;50.652;12.216;2023-04-03T01:27:01;3.90;23.20
148;DHT22;142;50.652;12.216;2023-04-03T01:29:31;3.90;23.20
148;DHT22;142;50.652;12.216;2023-04-03T01:32:00;3.90;23.30
148;DHT22;142;50.652;12.216;2023-04-03T01:34:29;3.90;23.10
148;DHT22;142;50.652;12.216;2023-04-03T01:36:57;3.90;23.30
148;DHT22;142;50.652;12.216;2023-04-03T01:39:24;3.80;23.30
148;DHT22;142;50.652;12.216;2023-04-03T01:41:51;3.80;23.10
148;DHT22;142;50.652;12.216;2023-04-03T01:44:18;3.80;23.10
148;DHT22;142;50.652;12.216;2023-04-03T01:46:45;3.70;23.30
148;DHT22;142;50.652;12.216;2023-04-03T01:49:14;3.70;23.20
148;DHT22;142;50.652;12.216;2023-04-03T01:51:41;3.70;23.20
148;DHT22;142;50.652;12.216;2023-04-03T01:54:08;3.60;23.20
148;DHT22;142;50.652;12.216;2023-04-03T01:56:36;3.60;23.20
148;DHT22;142;50.652;12.216;2023-04-03T01:59:04;3.60;23.40
148;DHT22;142;50.652;12.216;2023-04-03T02:01:31;3.60;23.30
148;DHT22;142;50.652;12.216;2023-04-03T02:03:58;3.60;23.20
148;DHT22;142;50.652;12.216;2023-04-03T02:06:27;3.60;23.50
148;DHT22;142;50.652;12.216;2023-04-03T02:08:54;3.60;23.40
148;DHT22;142;50.652;12.216;2023-04-03T02:11:21;3.50;23.60
148;DHT22;142;50.652;12.216;2023-04-03T02:13:47;3.40;23.30
148;DHT22;142;50.652;12.216;2023-04-03T02:16:14;3.40;23.40
148;DHT22;142;50.652;12.216;2023-04-03T02:18:42;3.40;23.80
148;DHT22;142;50.652;12.216;2023-04-03T02:21:09;3.30;23.50
148;DHT22;142;50.652;12.216;2023-04-03T02:23:38;3.40;23.40
148;DHT22;142;50.652;12.216;2023-04-03T02:26:07;3.40;23.40
148;DHT22;142;50.652;12.216;2023-04-03T02:28:34;3.40;23.70
148;DHT22;142;50.652;12.216;2023-04-03T02:31:02;3.50;23.40
148;DHT22;142;50.652;12.216;2023-04-03T02:33:29;3.50;23.50
148;DHT22;142;50.652;12.216;2023-04-03T02:35:57;3.50;23.40
148;DHT22;142;50.652;12.216;2023-04-03T02:38:25;3.40;23.40
148;DHT22;142;50.652;12.216;2023-04-03T02:40:59;3.40;23.30
148;DHT22;142;50.652;12.216;2023-04-03T02:43:27;3.30;23.40
148;DHT22;142;50.652;12.216;2023-04-03T02:45:54;3.20;23.40
148;DHT22;142;50.652;12.216;2023-04-03T02:48:21;3.20;23.40
148;DHT22;142;50.652;12.216;2023-04-03T02:50:49;3.10;23.50
148;DHT22;142;50.652;12.216;2023-04-03T02:53:16;3.10;23.40
148;DHT22;142;50.652;12.216;2023-04-03T02:55:44;3.00;23.50
148;DHT22;142;50.652;12.216;2023-04-03T02:58:13;3.00;23.50
148;DHT22;142;50.652;12.216;2023-04-03T03:00:41;2.90;23.50
148;DHT22;142;50.652;12.216;2023-04-03T03:03:08;2.90;23.50
148;DHT22;142;50.652;12.216;2023-04-03T03:05:36;2.80;23.50
148;DHT22;142;50.652;12.216;2023-04-03T03:08:03;2.80;23.40
148;DHT22;142;50.652;12.216;2023-04-03T03:10:30;2.80;23.60
148;DHT22;142;50.652;12.216;2023-04-03T03:12:57;2.90;23.40
148;DHT22;142;50.652;12.216;2023-04-03T03:15:27;2.90;23.50
148;DHT22;142;50.652;12.216;2023-04-03T03:17:54;2.90;23.50
148;DHT22;142;50.652;12.216;2023-04-03T03:20:21;2.90;23.60
148;DHT22;142;50.652;12.216;2023-04-03T03:22:48;2.90;23.60
148;DHT22;142;50.652;12.216;2023-04-03T03:25:16;2.80;23.60
148;DHT22;142;50.652;12.216;2023-04-03T03:27:43;2.80;23.60
148;DHT22;142;50.652;12.216;2023-04-03T03:30:11;2.80;23.60
148;DHT22;142;50.652;12.216;2023-04-03T03:32:40;2.80;23.50
148;DHT22;142;50.652;12.216;2023-04-03T03:35:08;2.80;23.80
148;DHT22;142;50.652;12.216;2023-04-03T03:37:35;2.70;23.60
148;DHT22;142;50.652;12.216;2023-04-03T03:40:02;2.70;23.80
148;DHT22;142;50.652;12.216;2023-04-03T03:42:30;2.60;23.70
148;DHT22;142;50.652;12.216;2023-04-03T03:44:57;2.60;23.60
148;DHT22;142;50.652;12.216;2023-04-03T03:47:24;2.60;23.60
148;DHT22;142;50.652;12.216;2023-04-03T03:49:53;2.60;23.70
148;DHT22;142;50.652;12.216;2023-04-03T03:52:20;2.60;23.50
148;DHT22;142;50.652;12.216;2023-04-03T03:54:47;2.70;23.60
148;DHT22;142;50.652;12.216;2023-04-03T03:57:15;2.70;24.00
148;DHT22;142;50.652;12.216;2023-04-03T03:59:42;2.60;23.60
148;DHT22;142;50.652;12.216;2023-04-03T04:02:10;2.60;23.70
148;DHT22;142;50.652;12.216;2023-04-03T04:04:37;2.60;23.60
148;DHT22;142;50.652;12.216;2023-04-03T04:07:06;2.60;23.80
148;DHT22;142;50.652;12.216;2023-04-03T04:09:33;2.60;23.60
148;DHT22;142;50.652;12.216;2023-04-03T04:12:01;2.60;23.70
148;DHT22;142;50.652;12.216;2023-04-03T04:14:28;2.50;23.60
148;DHT22;142;50.652;12.216;2023-04-03T04:16:56;2.60;23.80
148;DHT22;142;50.652;12.216;2023-04-03T04:19:23;2.60;23.80
148;DHT22;142;50.652;12.216;2023-04-03T04:21:51;2.60;23.70
148;DHT22;142;50.652;12.216;2023-04-03T04:24:19;2.50;23.80
148;DHT22;142;50.652;12.216;2023-04-03T04:26:48;2.40;24.10
148;DHT22;142;50.652;12.216;2023-04-03T04:29:15;2.30;23.90
148;DHT22;142;50.652;12.216;2023-04-03T04:31:43;2.30;23.70
148;DHT22;142;50.652;12.216;2023-04-03T04:34:09;2.30;23.70
148;DHT22;142;50.652;12.216;2023-04-03T04:36:38;2.30;23.70
148;DHT22;142;50.652;12.216;2023-04-03T04:39:05;2.30;23.90
148;DHT22;142;50.652;12.216;2023-04-03T04:41:34;2.30;23.70
148;DHT22;142;50.652;12.216;2023-04-03T04:44:01;2.20;23.70
148;DHT22;142;50.652;12.216;2023-04-03T04:46:29;2.20;23.90
148;DHT22;142;50.652;12.216;2023-04-03T04:48:56;2.30;23.70
148;DHT22;142;50.652;12.216;2023-04-03T04:51:23;2.40;23.60
148;DHT22;142;50.652;12.216;2023-04-03T04:53:51;2.40;23.80
148;DHT22;142;50.652;12.216;2023-04-03T04:56:18;2.40;24.10
148;DHT22;142;50.652;12.216;2023-04-03T04:58:47;2.30;23.90
148;DHT22;142;50.652;12.216;2023-04-03T05:01:15;2.30;24.00
148;DHT22;142;50.652;12.216;2023-04-03T05:03:42;2.20;24.10
148;DHT22;142;50.652;12.216;2023-04-03T05:06:09;2.20;23.70
148;DHT22;142;50.652;12.216;2023-04-03T05:08:36;2.20;24.00
148;DHT22;142;50.652;12.216;2023-04-03T05:11:04;2.20;23.90
148;DHT22;142;50.652;12.216;2023-04-03T05:13:32;2.20;23.70
148;DHT22;142;50.652;12.216;2023-04-03T05:16:01;2.20;23.70
148;DHT22;142;50.652;12.216;2023-04-03T05:18:28;2.10;23.90
148;DHT22;142;50.652;12.216;2023-04-03T05:20:57;2.10;23.80
148;DHT22;142;50.652;12.216;2023-04-03T05:23:24;2.10;23.90
148;DHT22;142;50.652;12.216;2023-04-03T05:25:53;2.20;23.80
148;DHT22;142;50.652;12.216;2023-04-03T05:28:20;2.20;24.00
148;DHT22;142;50.652;12.216;2023-04-03T05:30:53;2.30;24.00
148;DHT22;142;50.652;12.216;2023-04-03T05:33:22;2.30;23.90
148;DHT22;142;50.652;12.216;2023-04-03T05:35:50;2.30;23.90
148;DHT22;142;50.652;12.216;2023-04-03T05:38:17;2.20;23.90
148;DHT22;142;50.652;12.216;2023-04-03T05:40:44;2.20;23.90
148;DHT22;142;50.652;12.216;2023-04-03T05:43:11;2.20;24.00
148;DHT22;142;50.652;12.216;2023-04-03T05:45:38;2.10;24.10
148;DHT22;142;50.652;12.216;2023-04-03T05:48:05;2.10;23.90
148;DHT22;142;50.652;12.216;2023-04-03T05:50:34;2.10;23.80
148;DHT22;142;50.652;12.216;2023-04-03T05:53:07;2.30;23.90
148;DHT22;142;50.652;12.216;2023-04-03T05:55:37;2.30;24.10
148;DHT22;142;50.652;12.216;2023-04-03T05:58:05;2.30;23.90
148;DHT22;142;50.652;12.216;2023-04-03T06:00:32;2.30;23.70
148;DHT22;142;50.652;12.216;2023-04-03T06:02:59;2.40;23.90
148;DHT22;142;50.652;12.216;2023-04-03T06:05:26;2.40;24.30
148;DHT22;142;50.652;12.216;2023-04-03T06:07:55;2.30;24.10
148;DHT22;142;50.652;12.216;2023-04-03T06:10:22;2.20;24.20
148;DHT22;142;50.652;12.216;2023-04-03T06:12:50;2.10;23.80
148;DHT22;142;50.652;12.216;2023-04-03T06:15:17;2.20;23.90
148;DHT22;142;50.652;12.216;2023-04-03T06:17:45;2.30;24.10
148;DHT22;142;50.652;12.216;2023-04-03T06:20:12;2.30;23.90
148;DHT22;142;50.652;12.216;2023-04-03T06:22:40;2.20;24.00
148;DHT22;142;50.652;12.216;2023-04-03T06:25:09;2.20;24.20
148;DHT22;142;50.652;12.216;2023-04-03T06:27:36;2.10;24.20
148;DHT22;142;50.652;12.216;2023-04-03T06:30:05;2.20;24.00
148;DHT22;142;50.652;12.216;2023-04-03T06:32:32;2.20;24.40
148;DHT22;142;50.652;12.216;2023-04-03T06:35:00;2.30;24.30
148;DHT22;142;50.652;12.216;2023-04-03T06:37:27;2.30;24.00
148;DHT22;142;50.652;12.216;2023-04-03T06:39:56;2.40;24.10
148;DHT22;142;50.652;12.216;2023-04-03T06:42:25;2.30;24.20
148;DHT22;142;50.652;12.216;2023-04-03T06:44:52;2.40;24.20
148;DHT22;142;50.652;12.216;2023-04-03T06:47:19;2.40;24.30
148;DHT22;142;50.652;12.216;2023-04-03T06:49:46;2.30;24.20
148;DHT22;142;50.652;12.216;2023-04-03T06:52:13;2.30;24.20
148;DHT22;142;50.652;12.216;2023-04-03T06:54:41;2.30;24.10
148;DHT22;142;50.652;12.216;2023-04-03T06:57:08;2.30;24.20
148;DHT22;142;50.652;12.216;2023-04-03T06:59:39;2.20;24.60
148;DHT22;142;50.652;12.216;2023-04-03T07:02:08;2.10;24.20
148;DHT22;142;50.652;12.216;2023-04-03T07:04:35;2.00;24.50
148;DHT22;142;50.652;12.216;2023-04-03T07:07:05;2.10;23.90
148;DHT22;142;50.652;12.216;2023-04-03T07:09:33;2.10;24.10
148;DHT22;142;50.652;12.216;2023-04-03T07:12:00;2.10;24.00
148;DHT22;142;50.652;12.216;2023-04-03T07:14:27;2.20;23.90
148;DHT22;142;50.652;12.216;2023-04-03T07:16:55;2.30;24.20
148;DHT22;142;50.652;12.216;2023-04-03T07:19:22;2.40;24.10
148;DHT22;142;50.652;12.216;2023-04-03T07:21:53;2.50;23.90
148;DHT22;142;50.652;12.216;2023-04-03T07:24:20;2.50;24.00
148;DHT22;142;50.652;12.216;2023-04-03T07:26:49;2.60;24.30
148;DHT22;142;50.652;12.216;2023-04-03T07:29:17;2.50;24.50
148;DHT22;142;50.652;12.216;2023-04-03T07:31:47;2.50;24.10
148;DHT22;142;50.652;12.216;2023-04-03T07:34:16;2.50;24.10
148;DHT22;142;50.652;12.216;2023-04-03T07:36:43;2.50;24.30
148;DHT22;142;50.652;12.216;2023-04-03T07:39:10;2.60;24.10
148;DHT22;142;50.652;12.216;2023-04-03T07:41:38;2.60;24.00
148;DHT22;142;50.652;12.216;2023-04-03T07:44:05;2.80;24.10
148;DHT22;142;50.652;12.216;2023-04-03T07:46:35;2.80;24.10
148;DHT22;142;50.652;12.216;2023-04-03T07:49:02;2.80;24.60
148;DHT22;142;50.652;12.216;2023-04-03T07:51:31;2.60;25.10
148;DHT22;142;50.652;12.216;2023-04-03T07:53:58;2.70;24.80
148;DHT22;142;50.652;12.216;2023-04-03T07:56:26;2.80;24.80
148;DHT22;142;50.652;12.216;2023-04-03T07:58:56;2.90;24.70
148;DHT22;142;50.652;12.216;2023-04-03T08:01:29;2.90;25.50
148;DHT22;142;50.652;12.216;2023-04-03T08:03:58;2.90;25.10
148;DHT22;142;50.652;12.216;2023-04-03T08:06:25;2.90;25.40
148;DHT22;142;50.652;12.216;2023-04-03T08:08:53;2.90;25.30
148;DHT22;142;50.652;12.216;2023-04-03T08:11:21;3.00;25.70
148;DHT22;142;50.652;12.216;2023-04-03T08:13:49;3.10;25.70
148;DHT22;142;50.652;12.216;2023-04-03T08:16:18;3.10;25.30
148;DHT22;142;50.652;12.216;2023-04-03T08:18:47;3.10;25.70
148;DHT22;142;50.652;12.216;2023-04-03T08:21:14;3.10;25.70
148;DHT22;142;50.652;12.216;2023-04-03T08:23:43;3.10;25.50
148;DHT22;142;50.652;12.216;2023-04-03T08:26:14;3.20;25.40
148;DHT22;142;50.652;12.216;2023-04-03T08:28:41;3.30;25.00
148;DHT22;142;50.652;12.216;2023-04-03T08:31:10;3.30;27.80
148;DHT22;142;50.652;12.216;2023-04-03T08:33:39;3.40;31.30
148;DHT22;142;50.652;12.216;2023-04-03T08:36:14;3.50;36.60
148;DHT22;142;50.652;12.216;2023-04-03T08:38:42;3.50;46.20
148;DHT22;142;50.652;12.216;2023-04-03T08:41:15;3.60;54.30
148;DHT22;142;50.652;12.216;2023-04-03T08:43:56;3.60;61.80
148;DHT22;142;50.652;12.216;2023-04-03T08:46:35;3.80;70.40
148;DHT22;142;50.652;12.216;2023-04-03T08:49:11;3.80;75.10
148;DHT22;142;50.652;12.216;2023-04-03T08:51:45;3.80;76.10
148;DHT22;142;50.652;12.216;2023-04-03T08:54:24;3.70;77.70
148;DHT22;142;50.652;12.216;2023-04-03T08:56:59;3.70;79.40
148;DHT22;142;50.652;12.216;2023-04-03T08:59:28;3.70;82.10
148;DHT22;142;50.652;12.216;2023-04-03T09:02:00;3.70;82.50
148;DHT22;142;50.652;12.216;2023-04-03T09:04:31;3.60;82.80
148;DHT22;142;50.652;12.216;2023-04-03T09:07:06;3.70;83.40
148;DHT22;142;50.652;12.216;2023-04-03T09:09:36;3.80;83.30
148;DHT22;142;50.652;12.216;2023-04-03T09:12:15;3.80;84.30
148;DHT22;142;50.652;12.216;2023-04-03T09:14:49;3.80;84.10
148;DHT22;142;50.652;12.216;2023-04-03T09:17:26;3.90;84.40
148;DHT22;142;50.652;12.216;2023-04-03T09:19:58;4.00;84.30
148;DHT22;142;50.652;12.216;2023-04-03T09:22:32;4.10;84.20
148;DHT22;142;50.652;12.216;2023-04-03T09:25:05;4.00;88.00
148;DHT22;142;50.652;12.216;2023-04-03T09:27:37;3.90;88.10
148;DHT22;142;50.652;12.216;2023-04-03T09:30:05;4.00;88.50
148;DHT22;142;50.652;12.216;2023-04-03T09:32:35;4.00;88.20
148;DHT22;142;50.652;12.216;2023-04-03T09:35:04;4.10;88.40
148;DHT22;142;50.652;12.216;2023-04-03T09:37:40;4.20;88.00
148;DHT22;142;50.652;12.216;2023-04-03T09:40:30;4.30;88.60
148;DHT22;142;50.652;12.216;2023-04-03T09:43:18;4.30;88.20
148;DHT22;142;50.652;12.216;2023-04-03T09:45:47;4.30;88.00
148;DHT22;142;50.652;12.216;2023-04-03T09:48:16;4.00;87.60
148;DHT22;142;50.652;12.216;2023-04-03T09:50:56;3.90;88.40
148;DHT22;142;50.652;12.216;2023-04-03T09:53:31;3.90;88.60
148;DHT22;142;50.652;12.216;2023-04-03T09:55:59;3.90;89.10
148;DHT22;142;50.652;12.216;2023-04-03T09:58:32;4.00;88.20
148;DHT22;142;50.652;12.216;2023-04-03T10:01:02;3.90;87.20
148;DHT22;142;50.652;12.216;2023-04-03T10:03:31;4.00;87.20
148;DHT22;142;50.652;12.216;2023-04-03T10:05:58;4.20;87.20
148;DHT22;142;50.652;12.216;2023-04-03T10:08:29;4.20;87.00
148;DHT22;142;50.652;12.216;2023-04-03T10:11:09;4.30;87.20
148;DHT22;142;50.652;12.216;2023-04-03T10:13:49;4.30;84.00
148;DHT22;142;50.652;12.216;2023-04-03T10:16:19;4.30;84.40
148;DHT22;142;50.652;12.216;2023-04-03T10:18:58;4.50;85.80
148;DHT22;142;50.652;12.216;2023-04-03T10:21:34;4.60;84.20
148;DHT22;142;50.652;12.216;2023-04-03T10:24:08;4.70;85.70
148;DHT22;142;50.652;12.216;2023-04-03T10:26:43;4.70;82.80
148;DHT22;142;50.652;12.216;2023-04-03T10:29:36;4.70;85.20
148;DHT22;142;50.652;12.216;2023-04-03T10:32:19;4.70;83.80
148;DHT22;142;50.652;12.216;2023-04-03T10:34:51;4.80;80.90
148;DHT22;142;50.652;12.216;2023-04-03T10:37:23;5.00;80.30
148;DHT22;142;50.652;12.216;2023-04-03T10:39:55;5.30;79.20
148;DHT22;142;50.652;12.216;2023-04-03T10:42:28;5.60;76.80
148;DHT22;142;50.652;12.216;2023-04-03T10:45:15;5.90;77.90
148;DHT22;142;50.652;12.216;2023-04-03T10:47:55;6.00;76.20
148;DHT22;142;50.652;12.216;2023-04-03T10:50:36;6.20;76.70
148;DHT22;142;50.652;12.216;2023-04-03T10:53:14;6.40;75.60
148;DHT22;142;50.652;12.216;2023-04-03T10:55:46;6.40;78.10
148;DHT22;142;50.652;12.216;2023-04-03T10:58:21;6.50;76.00
148;DHT22;142;50.652;12.216;2023-04-03T11:00:55;6.60;75.50
148;DHT22;142;50.652;12.216;2023-04-03T11:03:30;6.40;78.20
148;DHT22;142;50.652;12.216;2023-04-03T11:06:02;6.10;79.70
148;DHT22;142;50.652;12.216;2023-04-03T11:08:34;6.10;80.30
148;DHT22;142;50.652;12.216;2023-04-03T11:11:06;6.10;78.30
148;DHT22;142;50.652;12.216;2023-04-03T11:13:40;5.80;76.00
148;DHT22;142;50.652;12.216;2023-04-03T11:16:14;5.80;78.40
148;DHT22;142;50.652;12.216;2023-04-03T11:18:46;6.10;78.90
148;DHT22;142;50.652;12.216;2023-04-03T11:21:20;6.20;76.30
148;DHT22;142;50.652;12.216;2023-04-03T11:23:48;6.00;75.40
148;DHT22;142;50.652;12.216;2023-04-03T11:26:18;5.90;77.50
148;DHT22;142;50.652;12.216;2023-04-03T11:28:52;5.70;78.40
148;DHT22;142;50.652;12.216;2023-04-03T11:31:33;5.90;78.40
148;DHT22;142;50.652;12.216;2023-04-03T11:34:16;5.80;76.20
148;DHT22;142;50.652;12.216;2023-04-03T11:36:48;5.70;75.80
148;DHT22;142;50.652;12.216;2023-04-03T11:39:21;5.70;76.80
148;DHT22;142;50.652;12.216;2023-04-03T11:41:49;5.80;76.90
148;DHT22;142;50.652;12.216;2023-04-03T11:44:33;5.80;76.70
148;DHT22;142;50.652;12.216;2023-04-03T11:47:03;5.90;76.20
148;DHT22;142;50.652;12.216;2023-04-03T11:49:53;5.90;75.10
148;DHT22;142;50.652;12.216;2023-04-03T11:52:59;5.80;75.30
148;DHT22;142;50.652;12.216;2023-04-03T11:55:53;5.80;75.50
148;DHT22;142;50.652;12.216;2023-04-03T11:58:22;6.00;75.90
148;DHT22;142;50.652;12.216;2023-04-03T12:01:02;6.10;74.90
148;DHT22;142;50.652;12.216;2023-04-03T12:03:56;6.00;75.90
148;DHT22;142;50.652;12.216;2023-04-03T12:06:54;5.90;74.10
148;DHT22;142;50.652;12.216;2023-04-03T12:12:30;5.60;74.00
148;DHT22;142;50.652;12.216;2023-04-03T12:18:32;5.70;70.50
148;DHT22;142;50.652;12.216;2023-04-03T12:21:08;5.90;71.80
148;DHT22;142;50.652;12.216;2023-04-03T12:23:37;6.30;72.80
148;DHT22;142;50.652;12.216;2023-04-03T12:26:25;6.60;70.30
148;DHT22;142;50.652;12.216;2023-04-03T12:28:53;6.50;72.20
148;DHT22;142;50.652;12.216;2023-04-03T12:31:25;6.40;73.40
148;DHT22;142;50.652;12.216;2023-04-03T12:34:09;6.30;73.50
148;DHT22;142;50.652;12.216;2023-04-03T12:36:49;6.20;75.10
148;DHT22;142;50.652;12.216;2023-04-03T12:39:54;6.20;74.40
148;DHT22;142;50.652;12.216;2023-04-03T12:42:55;6.20;72.40
148;DHT22;142;50.652;12.216;2023-04-03T12:45:41;6.40;73.00
148;DHT22;142;50.652;12.216;2023-04-03T12:48:15;6.70;71.40
148;DHT22;142;50.652;12.216;2023-04-03T12:50:45;6.50;69.40
148;DHT22;142;50.652;12.216;2023-04-03T12:53:18;6.40;70.60
148;DHT22;142;50.652;12.216;2023-04-03T12:55:46;6.20;70.40
148;DHT22;142;50.652;12.216;2023-04-03T12:58:15;6.30;71.80
148;DHT22;142;50.652;12.216;2023-04-03T13:00:43;6.50;72.60
148;DHT22;142;50.652;12.216;2023-04-03T13:03:23;6.80;71.40
148;DHT22;142;50.652;12.216;2023-04-03T13:05:53;6.80;72.60
148;DHT22;142;50.652;12.216;2023-04-03T13:08:23;6.70;73.30
148;DHT22;142;50.652;12.216;2023-04-03T13:10:58;6.70;73.80
148;DHT22;142;50.652;12.216;2023-04-03T13:13:26;6.60;73.00
148;DHT22;142;50.652;12.216;2023-04-03T13:15:54;6.70;74.20
148;DHT22;142;50.652;12.216;2023-04-03T13:18:23;6.50;72.80
148;DHT22;142;50.652;12.216;2023-04-03T13:20:58;6.30;71.40
148;DHT22;142;50.652;12.216;2023-04-03T13:23:29;6.20;72.00
148;DHT22;142;50.652;12.216;2023-04-03T13:25:58;6.30;72.40
148;DHT22;142;50.652;12.216;2023-04-03T13:28:31;6.40;72.10
148;DHT22;142;50.652;12.216;2023-04-03T13:31:05;6.60;72.00
148;DHT22;142;50.652;12.216;2023-04-03T13:33:35;6.50;70.50
148;DHT22;142;50.652;12.216;2023-04-03T13:36:08;6.50;73.60
148;DHT22;142;50.652;12.216;2023-04-03T13:38:45;6.50;73.50
148;DHT22;142;50.652;12.216;2023-04-03T13:41:25;6.40;73.50
148;DHT22;142;50.652;12.216;2023-04-03T13:43:55;6.40;72.80
148;DHT22;142;50.652;12.216;2023-04-03T13:46:27;6.50;71.40
148;DHT22;142;50.652;12.216;2023-04-03T13:48:56;6.60;71.40
148;DHT22;142;50.652;12.216;2023-04-03T13:51:24;6.50;69.40
148;DHT22;142;50.652;12.216;2023-04-03T13:53:56;6.60;69.80
148;DHT22;142;50.652;12.216;2023-04-03T13:56:29;6.70;69.70
148;DHT22;142;50.652;12.216;2023-04-03T13:59:19;6.80;68.90
148;DHT22;142;50.652;12.216;2023-04-03T14:01:51;6.90;68.70
148;DHT22;142;50.652;12.216;2023-04-03T14:04:21;7.00;70.20
148;DHT22;142;50.652;12.216;2023-04-03T14:06:49;6.90;72.00
148;DHT22;142;50.652;12.216;2023-04-03T14:09:21;6.90;71.20
148;DHT22;142;50.652;12.216;2023-04-03T14:11:50;6.90;71.50
148;DHT22;142;50.652;12.216;2023-04-03T14:14:21;6.80;72.10
148;DHT22;142;50.652;12.216;2023-04-03T14:16:52;6.70;72.30
148;DHT22;142;50.652;12.216;2023-04-03T14:19:22;6.60;72.00
148;DHT22;142;50.652;12.216;2023-04-03T14:21:50;6.70;72.50
148;DHT22;142;50.652;12.216;2023-04-03T14:24:20;7.00;70.90
148;DHT22;142;50.652;12.216;2023-04-03T14:26:48;7.30;68.90
148;DHT22;142;50.652;12.216;2023-04-03T14:29:18;7.30;69.70
148;DHT22;142;50.652;12.216;2023-04-03T14:31:48;7.20;69.40
148;DHT22;142;50.652;12.216;2023-04-03T14:34:16;7.00;69.80
148;DHT22;142;50.652;12.216;2023-04-03T14:36:45;6.70;69.60
148;DHT22;142;50.652;12.216;2023-04-03T14:39:17;6.50;70.50
148;DHT22;142;50.652;12.216;2023-04-03T14:41:46;6.40;72.60
148;DHT22;142;50.652;12.216;2023-04-03T14:44:16;6.40;72.30
148;DHT22;142;50.652;12.216;2023-04-03T14:46:44;6.40;73.40
148;DHT22;142;50.652;12.216;2023-04-03T14:49:14;6.20;72.30
148;DHT22;142;50.652;12.216;2023-04-03T14:51:42;6.10;71.80
148;DHT22;142;50.652;12.216;2023-04-03T14:54:13;6.20;72.30
148;DHT22;142;50.652;12.216;2023-04-03T14:56:42;6.20;70.80
148;DHT22;142;50.652;12.216;2023-04-03T14:59:13;6.20;71.40
148;DHT22;142;50.652;12.216;2023-04-03T15:01:43;6.30;72.50
148;DHT22;142;50.652;12.216;2023-04-03T15:04:12;6.20;73.60
148;DHT22;142;50.652;12.216;2023-04-03T15:06:40;6.20;74.70
148;DHT22;142;50.652;12.216;2023-04-03T15:09:15;6.20;75.20
148;DHT22;142;50.652;12.216;2023-04-03T15:11:45;6.10;74.50
148;DHT22;142;50.652;12.216;2023-04-03T15:14:14;6.10;73.90
148;DHT22;142;50.652;12.216;2023-04-03T15:16:41;6.30;75.10
148;DHT22;142;50.652;12.216;2023-04-03T15:19:10;6.30;74.50
148;DHT22;142;50.652;12.216;2023-04-03T15:21:38;6.30;74.00
148;DHT22;142;50.652;12.216;2023-04-03T15:24:06;6.20;74.90
148;DHT22;142;50.652;12.216;2023-04-03T15:26:33;6.10;75.90
148;DHT22;142;50.652;12.216;2023-04-03T15:29:01;5.90;77.20
148;DHT22;142;50.652;12.216;2023-04-03T15:31:30;5.90;77.80
148;DHT22;142;50.652;12.216;2023-04-03T15:33:58;5.90;76.30
148;DHT22;142;50.652;12.216;2023-04-03T15:36:28;5.90;77.20
148;DHT22;142;50.652;12.216;2023-04-03T15:38:55;5.90;77.00
148;DHT22;142;50.652;12.216;2023-04-03T15:41:23;5.90;75.60
148;DHT22;142;50.652;12.216;2023-04-03T15:43:50;5.90;75.90
148;DHT22;142;50.652;12.216;2023-04-03T15:46:17;5.90;75.70
148;DHT22;142;50.652;12.216;2023-04-03T15:48:47;5.80;76.70
148;DHT22;142;50.652;12.216;2023-04-03T15:51:15;5.80;76.30
148;DHT22;142;50.652;12.216;2023-04-03T15:53:42;5.70;76.10
148;DHT22;142;50.652;12.216;2023-04-03T15:56:10;5.70;76.40
148;DHT22;142;50.652;12.216;2023-04-03T15:58:37;5.60;76.50
148;DHT22;142;50.652;12.216;2023-04-03T16:01:06;5.60;76.90
148;DHT22;142;50.652;12.216;2023-04-03T16:03:33;5.70;77.50
148;DHT22;142;50.652;12.216;2023-04-03T16:06:03;5.60;77.00
148;DHT22;142;50.652;12.216;2023-04-03T16:08:30;5.50;78.50
148;DHT22;142;50.652;12.216;2023-04-03T16:10:57;5.50;79.60
148;DHT22;142;50.652;12.216;2023-04-03T16:13:25;5.60;79.10
148;DHT22;142;50.652;12.216;2023-04-03T16:15:52;5.60;79.20
148;DHT22;142;50.652;12.216;2023-04-03T16:18:20;5.60;79.10
148;DHT22;142;50.652;12.216;2023-04-03T16:20:47;5.50;79.10
148;DHT22;142;50.652;12.216;2023-04-03T16:23:16;5.50;79.00
148;DHT22;142;50.652;12.216;2023-04-03T16:25:43;5.40;79.50
148;DHT22;142;50.652;12.216;2023-04-03T16:28:13;5.40;79.50
148;DHT22;142;50.652;12.216;2023-04-03T16:30:41;5.30;78.70
148;DHT22;142;50.652;12.216;2023-04-03T16:33:08;5.20;80.20
148;DHT22;142;50.652;12.216;2023-04-03T16:35:38;5.10;80.80
148;DHT22;142;50.652;12.216;2023-04-03T16:38:07;5.10;81.00
148;DHT22;142;50.652;12.216;2023-04-03T16:40:36;5.00;82.50
148;DHT22;142;50.652;12.216;2023-04-03T16:43:06;5.00;82.30
148;DHT22;142;50.652;12.216;2023-04-03T16:45:33;5.10;83.60
148;DHT22;142;50.652;12.216;2023-04-03T16:48:01;5.10;83.70
148;DHT22;142;50.652;12.216;2023-04-03T16:50:29;5.10;81.90
148;DHT22;142;50.652;12.216;2023-04-03T16:52:56;5.10;82.80
148;DHT22;142;50.652;12.216;2023-04-03T16:55:23;5.00;82.40
148;DHT22;142;50.652;12.216;2023-04-03T16:58:06;4.90;82.00
148;DHT22;142;50.652;12.216;2023-04-03T17:00:35;4.90;83.60
148;DHT22;142;50.652;12.216;2023-04-03T17:03:02;4.90;84.20
148;DHT22;142;50.652;12.216;2023-04-03T17:05:30;4.90;84.20